createdAt,value
2023-01-30T00:01:28.933Z,45.22
2023-01-30T00:03:55.922Z,43.75
2023-01-30T00:06:23.394Z,44.92
2023-01-30T00:08:50.168Z,41.63
2023-01-30T00:11:19.577Z,42.50
2023-01-30T00:13:48.112Z,40.53
2023-01-30T00:16:15.048Z,36.50
2023-01-30T00:18:42.739Z,40.00
2023-01-30T00:21:12.024Z,46.08
2023-01-30T00:23:39.424Z,43.45
2023-01-30T00:26:06.895Z,44.65
2023-01-30T00:28:34.317Z,39.80
2023-01-30T00:31:01.008Z,38.67
2023-01-30T00:33:28.894Z,42.90
2023-01-30T00:35:56.603Z,43.92
2023-01-30T00:38:24.269Z,38.85
2023-01-30T00:40:51.305Z,45.67
2023-01-30T00:43:38.403Z,42.00
2023-01-30T00:46:35.633Z,38.47
2023-01-30T00:49:02.347Z,37.15
2023-01-30T00:51:29.086Z,43.25
2023-01-30T00:53:55.847Z,37.95
2023-01-30T00:56:22.572Z,39.50
2023-01-30T00:58:49.367Z,40.53
2023-01-30T01:01:16.056Z,45.87
2023-01-30T01:03:42.963Z,43.83
2023-01-30T01:06:09.697Z,47.30
2023-01-30T01:08:36.324Z,42.22
2023-01-30T01:11:03.165Z,48.05
2023-01-30T01:13:30.055Z,40.70
2023-01-30T01:15:56.968Z,42.42
2023-01-30T01:18:23.938Z,53.53
2023-01-30T01:20:50.613Z,37.50
2023-01-30T01:23:17.310Z,43.00
2023-01-30T01:25:44.021Z,41.25
2023-01-30T01:28:10.695Z,43.97
2023-01-30T01:30:38.269Z,46.40
2023-01-30T01:33:05.057Z,44.17
2023-01-30T01:35:31.706Z,51.90
2023-01-30T01:37:58.422Z,52.00
2023-01-30T01:40:43.894Z,49.63
2023-01-30T01:43:19.252Z,48.38
2023-01-30T01:45:51.802Z,48.80
2023-01-30T01:48:48.633Z,51.47
2023-01-30T01:51:21.319Z,54.43
2023-01-30T01:53:57.745Z,57.43
2023-01-30T01:56:25.745Z,52.30
2023-01-30T01:59:01.508Z,55.47
2023-01-30T02:01:29.591Z,48.80
2023-01-30T02:04:01.877Z,51.00
2023-01-30T02:06:30.184Z,54.23
2023-01-30T02:09:02.279Z,58.70
2023-01-30T02:11:52.028Z,56.67
2023-01-30T02:14:20.627Z,51.93
2023-01-30T02:16:47.618Z,53.33
2023-01-30T02:19:20.507Z,54.80
2023-01-30T02:22:08.809Z,53.37
2023-01-30T02:24:52.079Z,60.73
2023-01-30T02:27:41.467Z,52.00
2023-01-30T02:30:11.286Z,46.90
2023-01-30T02:33:11.209Z,47.47
2023-01-30T02:36:14.950Z,58.17
2023-01-30T02:38:46.878Z,48.40
2023-01-30T02:41:35.509Z,48.00
2023-01-30T02:44:27.455Z,50.53
2023-01-30T02:47:07.834Z,46.87
2023-01-30T02:49:46.423Z,45.67
2023-01-30T02:52:17.268Z,55.90
2023-01-30T02:54:44.830Z,50.07
2023-01-30T02:57:21.043Z,49.60
2023-01-30T02:59:56.656Z,43.93
2023-01-30T03:02:32.646Z,55.00
2023-01-30T03:05:21.255Z,55.63
2023-01-30T03:08:12.409Z,50.87
2023-01-30T03:10:49.624Z,46.93
2023-01-30T03:13:52.395Z,51.90
2023-01-30T03:16:28.258Z,47.40
2023-01-30T03:18:55.109Z,42.63
2023-01-30T03:21:21.800Z,45.47
2023-01-30T03:23:51.161Z,44.70
2023-01-30T03:26:22.638Z,45.33
2023-01-30T03:28:51.296Z,43.97
2023-01-30T03:31:18.606Z,48.77
2023-01-30T03:33:46.010Z,50.63
2023-01-30T03:36:13.428Z,46.80
2023-01-30T03:38:40.339Z,52.80
2023-01-30T03:41:07.205Z,52.93
2023-01-30T03:43:34.920Z,39.87
2023-01-30T03:46:03.410Z,54.63
2023-01-30T03:48:30.220Z,49.70
2023-01-30T03:50:56.917Z,47.90
2023-01-30T03:53:23.963Z,49.00
2023-01-30T03:55:50.632Z,51.77
2023-01-30T03:58:22.671Z,53.37
2023-01-30T04:00:50.634Z,52.37
2023-01-30T04:03:17.493Z,54.97
2023-01-30T04:05:44.231Z,55.40
2023-01-30T04:08:11.200Z,49.37
2023-01-30T04:10:40.490Z,52.50
2023-01-30T04:13:07.413Z,50.43
2023-01-30T04:15:34.126Z,44.33
2023-01-30T04:18:39.244Z,45.13
2023-01-30T04:21:13.103Z,45.93
2023-01-30T04:23:40.961Z,46.43
2023-01-30T04:26:08.521Z,56.97
2023-01-30T04:28:37.973Z,50.10
2023-01-30T04:31:05.278Z,47.53
2023-01-30T04:33:43.879Z,48.87
2023-01-30T04:36:12.622Z,46.10
2023-01-30T04:38:40.218Z,51.40
2023-01-30T04:41:07.907Z,48.40
2023-01-30T04:43:38.899Z,51.83
2023-01-30T04:46:24.272Z,48.40
2023-01-30T04:48:51.018Z,50.37
2023-01-30T04:51:17.812Z,37.93
2023-01-30T04:53:44.607Z,55.60
2023-01-30T04:56:11.597Z,50.67
2023-01-30T04:58:38.275Z,47.00
2023-01-30T05:01:24.439Z,48.80
2023-01-30T05:03:53.238Z,45.10
2023-01-30T05:06:21.486Z,51.77
2023-01-30T05:08:52.817Z,50.80
2023-01-30T05:11:20.314Z,42.50
2023-01-30T05:13:47.821Z,47.90
2023-01-30T05:16:15.565Z,58.20
2023-01-30T05:18:42.986Z,52.73
2023-01-30T05:21:12.699Z,52.33
2023-01-30T05:23:40.904Z,44.87
2023-01-30T05:26:07.962Z,45.17
2023-01-30T05:28:35.247Z,47.73
2023-01-30T05:31:13.583Z,50.60
2023-01-30T05:33:41.237Z,43.27
2023-01-30T05:36:13.257Z,51.80
2023-01-30T05:38:40.271Z,46.20
2023-01-30T05:41:08.348Z,52.50
2023-01-30T05:43:35.836Z,46.87
2023-01-30T05:46:05.385Z,44.40
2023-01-30T05:48:33.243Z,43.93
2023-01-30T05:51:00.578Z,41.50
2023-01-30T05:53:31.215Z,45.53
2023-01-30T05:56:03.602Z,43.23
2023-01-30T05:58:31.256Z,41.27
2023-01-30T06:01:02.541Z,46.33
2023-01-30T06:03:29.474Z,44.80
2023-01-30T06:05:56.175Z,51.60
2023-01-30T06:08:22.890Z,44.13
2023-01-30T06:10:49.905Z,47.37
2023-01-30T06:13:16.895Z,49.60
2023-01-30T06:15:43.722Z,44.03
2023-01-30T06:18:10.407Z,51.50
2023-01-30T06:20:37.212Z,48.77
2023-01-30T06:23:03.955Z,47.87
2023-01-30T06:25:30.640Z,48.40
2023-01-30T06:27:57.295Z,52.70
2023-01-30T06:30:24.002Z,45.47
2023-01-30T06:32:51.538Z,46.83
2023-01-30T06:35:18.508Z,51.50
2023-01-30T06:37:45.950Z,50.87
2023-01-30T06:40:13.469Z,57.23
2023-01-30T06:42:45.098Z,55.97
2023-01-30T06:45:12.553Z,56.10
2023-01-30T06:47:54.001Z,63.77
2023-01-30T06:50:23.614Z,55.47
2023-01-30T06:52:51.468Z,45.60
2023-01-30T06:55:21.015Z,59.97
2023-01-30T06:57:48.544Z,59.60
2023-01-30T07:00:18.340Z,62.03
2023-01-30T07:02:46.087Z,59.60
2023-01-30T07:05:13.337Z,62.57
2023-01-30T07:07:40.056Z,56.80
2023-01-30T07:10:09.092Z,52.83
2023-01-30T07:12:36.815Z,66.07
2023-01-30T07:15:05.402Z,56.97
2023-01-30T07:17:32.492Z,58.73
2023-01-30T07:19:59.839Z,53.40
2023-01-30T07:22:26.632Z,45.60
2023-01-30T07:24:53.372Z,46.50
2023-01-30T07:27:20.815Z,52.97
2023-01-30T07:29:47.479Z,44.37
2023-01-30T07:32:16.911Z,40.73
2023-01-30T07:34:43.580Z,46.67
2023-01-30T07:37:10.343Z,44.07
2023-01-30T07:39:37.051Z,42.50
2023-01-30T07:42:04.267Z,48.07
2023-01-30T07:44:31.182Z,41.60
2023-01-30T07:46:57.868Z,41.80
2023-01-30T07:49:24.731Z,42.07
2023-01-30T07:51:51.823Z,42.37
2023-01-30T07:54:18.662Z,37.63
2023-01-30T07:56:45.458Z,45.00
2023-01-30T07:59:12.644Z,41.10
2023-01-30T08:01:39.332Z,39.50
2023-01-30T08:04:05.993Z,43.50
2023-01-30T08:06:37.037Z,39.23
2023-01-30T08:09:04.160Z,42.53
2023-01-30T08:11:31.408Z,42.57
2023-01-30T08:13:58.037Z,43.20
2023-01-30T08:16:24.767Z,42.33
2023-01-30T08:18:51.520Z,46.93
2023-01-30T08:21:18.194Z,50.17
2023-01-30T08:23:45.029Z,42.63
2023-01-30T08:26:11.696Z,44.17
2023-01-30T08:28:39.288Z,40.17
2023-01-30T08:31:10.770Z,45.67
2023-01-30T08:33:37.660Z,50.80
2023-01-30T08:36:04.758Z,42.73
2023-01-30T08:38:31.459Z,44.87
2023-01-30T08:40:59.332Z,45.87
2023-01-30T08:43:26.088Z,39.43
2023-01-30T08:45:56.528Z,49.00
2023-01-30T08:48:23.490Z,49.80
2023-01-30T08:50:54.441Z,43.37
2023-01-30T08:53:21.655Z,47.07
2023-01-30T08:55:52.917Z,42.17
2023-01-30T08:58:21.375Z,44.23
2023-01-30T09:00:49.411Z,45.70
2023-01-30T09:03:17.925Z,41.10
2023-01-30T09:05:44.613Z,48.40
2023-01-30T09:08:11.767Z,41.67
2023-01-30T09:10:38.479Z,48.83
2023-01-30T09:13:05.554Z,46.53
2023-01-30T09:15:32.912Z,36.97
2023-01-30T09:17:59.652Z,40.30
2023-01-30T09:20:26.523Z,39.20
2023-01-30T09:22:53.219Z,39.73
2023-01-30T09:25:20.092Z,38.80
2023-01-30T09:27:50.630Z,41.23
2023-01-30T09:30:18.097Z,29.20
2023-01-30T09:32:45.482Z,35.73
2023-01-30T09:35:12.465Z,29.40
2023-01-30T09:37:46.346Z,29.80
2023-01-30T09:40:17.420Z,28.53
2023-01-30T09:43:02.323Z,27.63
2023-01-30T09:45:40.847Z,21.10
2023-01-30T09:48:35.078Z,26.87
2023-01-30T09:51:25.764Z,21.77
2023-01-30T09:54:28.946Z,27.43
2023-01-30T09:57:21.141Z,22.83
2023-01-30T09:59:56.494Z,19.90
2023-01-30T10:02:55.148Z,18.70
2023-01-30T10:05:30.813Z,16.00
2023-01-30T10:08:03.366Z,11.03
2023-01-30T10:10:38.744Z,12.77
2023-01-30T10:13:20.412Z,12.37
2023-01-30T10:15:59.240Z,18.10
2023-01-30T10:18:49.871Z,17.87
2023-01-30T10:21:22.183Z,17.00
2023-01-30T10:24:09.947Z,15.57
2023-01-30T10:26:39.131Z,15.33
2023-01-30T10:29:27.748Z,8.53
2023-01-30T10:32:03.354Z,14.53
2023-01-30T10:34:36.937Z,13.43
2023-01-30T10:37:13.364Z,19.67
2023-01-30T10:39:55.015Z,11.07
2023-01-30T10:42:31.460Z,6.67
2023-01-30T10:45:13.207Z,14.90
2023-01-30T10:47:49.577Z,12.73
2023-01-30T10:50:20.901Z,9.57
2023-01-30T10:53:04.336Z,27.13
2023-01-30T10:55:46.019Z,12.27
2023-01-30T10:58:19.509Z,8.90
2023-01-30T11:00:58.648Z,17.43
2023-01-30T11:03:40.719Z,10.93
2023-01-30T11:06:23.876Z,9.27
2023-01-30T11:08:52.204Z,15.47
2023-01-30T11:11:29.112Z,17.43
2023-01-30T11:14:10.755Z,11.37
2023-01-30T11:16:57.560Z,16.83
2023-01-30T11:19:32.419Z,10.10
2023-01-30T11:22:04.972Z,11.90
2023-01-30T11:24:38.660Z,9.60
2023-01-30T11:27:25.627Z,16.10
2023-01-30T11:30:16.690Z,8.00
2023-01-30T11:32:46.250Z,13.37
2023-01-30T11:35:18.823Z,11.03
2023-01-30T11:37:45.716Z,12.50
2023-01-30T11:40:19.009Z,9.63
2023-01-30T11:42:48.795Z,8.70
2023-01-30T11:45:20.779Z,12.73
2023-01-30T11:47:59.193Z,15.03
2023-01-30T11:50:41.624Z,11.17
2023-01-30T11:53:35.554Z,8.70
2023-01-30T11:56:32.362Z,12.80
2023-01-30T11:59:02.617Z,11.30
2023-01-30T12:01:32.827Z,12.00
2023-01-30T12:04:01.121Z,10.00
2023-01-30T12:06:33.915Z,10.30
2023-01-30T12:09:00.781Z,19.47
2023-01-30T12:11:30.410Z,11.23
2023-01-30T12:14:25.342Z,10.23
2023-01-30T12:17:03.861Z,11.43
2023-01-30T12:20:02.434Z,13.80
2023-01-30T12:22:40.776Z,12.10
2023-01-30T12:25:26.557Z,14.27
2023-01-30T12:28:10.045Z,11.37
2023-01-30T12:30:43.550Z,14.13
2023-01-30T12:33:15.338Z,12.27
2023-01-30T12:36:09.394Z,6.70
2023-01-30T12:39:04.121Z,12.73
2023-01-30T12:42:03.209Z,10.30
2023-01-30T12:45:00.820Z,10.03
2023-01-30T12:47:52.627Z,9.90
2023-01-30T12:50:57.564Z,8.83
2023-01-30T12:53:29.331Z,16.43
2023-01-30T12:56:01.894Z,15.77
2023-01-30T12:58:32.936Z,10.40
2023-01-30T13:01:06.435Z,13.43
2023-01-30T13:03:36.470Z,12.83
2023-01-30T13:06:15.247Z,12.47
2023-01-30T13:09:00.389Z,13.00
2023-01-30T13:11:36.963Z,9.50
2023-01-30T13:14:09.687Z,15.90
2023-01-30T13:17:00.896Z,10.73
2023-01-30T13:19:45.969Z,7.00
2023-01-30T13:22:36.413Z,8.53
2023-01-30T13:25:08.348Z,13.00
2023-01-30T13:27:39.496Z,10.20
2023-01-30T13:30:10.411Z,11.63
2023-01-30T13:32:49.879Z,9.67
2023-01-30T13:35:27.864Z,15.00
2023-01-30T13:37:55.341Z,8.93
2023-01-30T13:40:44.701Z,18.87
2023-01-30T13:43:20.683Z,19.40
2023-01-30T13:45:50.184Z,18.00
2023-01-30T13:48:41.457Z,11.13
2023-01-30T13:51:17.243Z,13.17
2023-01-30T13:54:01.039Z,10.93
2023-01-30T13:56:44.702Z,12.47
2023-01-30T13:59:44.379Z,16.10
2023-01-30T14:02:18.484Z,11.90
2023-01-30T14:04:48.334Z,12.63
2023-01-30T14:07:16.903Z,12.13
2023-01-30T14:09:49.192Z,14.63
2023-01-30T14:12:28.433Z,15.57
2023-01-30T14:15:24.283Z,17.93
2023-01-30T14:18:21.447Z,16.10
2023-01-30T14:20:50.164Z,15.07
2023-01-30T14:23:24.053Z,15.07
2023-01-30T14:25:53.260Z,13.50
2023-01-30T14:28:19.888Z,14.80
2023-01-30T14:30:53.445Z,15.37
2023-01-30T14:33:23.204Z,16.57
2023-01-30T14:36:15.733Z,21.07
2023-01-30T14:38:45.200Z,20.37
2023-01-30T14:41:27.076Z,17.80
2023-01-30T14:43:54.403Z,13.70
2023-01-30T14:46:21.300Z,15.87
2023-01-30T14:48:50.689Z,13.30
2023-01-30T14:51:25.067Z,11.50
2023-01-30T14:54:07.449Z,11.70
2023-01-30T14:56:55.527Z,20.20
2023-01-30T14:59:43.938Z,14.63
2023-01-30T15:02:13.963Z,15.90
2023-01-30T15:04:48.129Z,14.70
2023-01-30T15:07:18.207Z,16.97
2023-01-30T15:10:01.503Z,17.40
2023-01-30T15:12:43.036Z,12.47
2023-01-30T15:15:19.115Z,10.50
2023-01-30T15:17:48.517Z,13.17
2023-01-30T15:20:45.181Z,15.50
2023-01-30T15:23:49.492Z,8.47
2023-01-30T15:26:38.720Z,12.77
2023-01-30T15:29:42.433Z,11.60
2023-01-30T15:32:20.800Z,24.97
2023-01-30T15:34:52.164Z,14.60
2023-01-30T15:37:36.649Z,12.93
2023-01-30T15:40:15.181Z,9.23
2023-01-30T15:43:00.386Z,22.07
2023-01-30T15:45:56.469Z,11.97
2023-01-30T15:48:39.811Z,12.27
2023-01-30T15:51:12.540Z,25.03
2023-01-30T15:53:44.568Z,12.13
2023-01-30T15:56:18.713Z,20.40
2023-01-30T15:58:45.804Z,10.43
2023-01-30T16:01:19.741Z,20.60
2023-01-30T16:03:46.753Z,22.63
2023-01-30T16:06:36.483Z,16.60
2023-01-30T16:09:23.478Z,18.63
2023-01-30T16:11:50.446Z,21.87
2023-01-30T16:14:19.520Z,19.70
2023-01-30T16:17:06.211Z,20.50
2023-01-30T16:19:35.522Z,13.80
2023-01-30T16:22:11.330Z,19.20
2023-01-30T16:24:38.387Z,14.97
2023-01-30T16:27:07.697Z,16.70
2023-01-30T16:29:57.670Z,16.20
2023-01-30T16:32:29.665Z,13.60
2023-01-30T16:35:27.173Z,19.97
2023-01-30T16:37:57.032Z,16.97
2023-01-30T16:40:26.440Z,15.33
2023-01-30T16:42:59.838Z,15.57
2023-01-30T16:45:35.491Z,16.80
2023-01-30T16:48:17.317Z,21.67
2023-01-30T16:50:46.783Z,19.93
2023-01-30T16:53:18.641Z,22.13
2023-01-30T16:56:14.633Z,20.17
2023-01-30T16:58:46.083Z,16.93
2023-01-30T17:01:12.893Z,20.17
2023-01-30T17:03:43.378Z,20.33
2023-01-30T17:06:19.474Z,14.07
2023-01-30T17:08:53.932Z,18.77
2023-01-30T17:11:34.173Z,10.47
2023-01-30T17:14:27.039Z,22.13
2023-01-30T17:17:10.169Z,14.00
2023-01-30T17:19:37.841Z,15.27
2023-01-30T17:22:24.284Z,17.87
2023-01-30T17:24:51.073Z,15.37
2023-01-30T17:27:17.775Z,17.07
2023-01-30T17:29:45.892Z,19.73
2023-01-30T17:32:15.648Z,17.87
2023-01-30T17:34:42.496Z,26.27
2023-01-30T17:37:19.705Z,23.03
2023-01-30T17:39:46.659Z,15.30
2023-01-30T17:42:15.407Z,23.53
2023-01-30T17:44:42.061Z,15.80
2023-01-30T17:47:11.544Z,16.13
2023-01-30T17:49:38.725Z,14.00
2023-01-30T17:52:06.952Z,14.40
2023-01-30T17:54:33.654Z,19.23
2023-01-30T17:57:02.883Z,13.83
2023-01-30T17:59:29.628Z,22.10
2023-01-30T18:01:56.452Z,17.23
2023-01-30T18:04:23.695Z,18.90
2023-01-30T18:06:59.079Z,16.90
2023-01-30T18:09:26.795Z,20.00
2023-01-30T18:11:53.535Z,13.53
2023-01-30T18:14:21.302Z,22.77
2023-01-30T18:16:48.921Z,10.90
2023-01-30T18:19:23.849Z,21.97
2023-01-30T18:21:50.772Z,22.30
2023-01-30T18:24:18.345Z,25.27
2023-01-30T18:26:45.790Z,21.93
2023-01-30T18:29:13.249Z,18.57
2023-01-30T18:31:40.825Z,30.00
2023-01-30T18:34:11.687Z,20.10
2023-01-30T18:36:38.795Z,16.57
2023-01-30T18:39:06.916Z,15.73
2023-01-30T18:41:35.179Z,18.37
2023-01-30T18:44:04.644Z,22.00
2023-01-30T18:46:32.211Z,21.53
2023-01-30T18:48:59.289Z,22.67
2023-01-30T18:51:32.480Z,18.23
2023-01-30T18:54:01.038Z,16.17
2023-01-30T18:56:33.435Z,15.27
2023-01-30T18:59:03.688Z,19.07
2023-01-30T19:01:34.585Z,18.60
2023-01-30T19:04:07.941Z,20.20
2023-01-30T19:06:36.784Z,17.73
2023-01-30T19:09:04.161Z,20.23
2023-01-30T19:11:49.788Z,18.20
2023-01-30T19:14:16.478Z,25.70
2023-01-30T19:16:43.182Z,32.40
2023-01-30T19:19:10.456Z,20.43
2023-01-30T19:21:37.136Z,14.63
2023-01-30T19:24:08.156Z,25.87
2023-01-30T19:26:35.259Z,23.53
2023-01-30T19:29:02.350Z,21.57
2023-01-30T19:31:29.198Z,17.07
2023-01-30T19:33:58.470Z,19.00
2023-01-30T19:36:27.238Z,23.37
2023-01-30T19:38:54.581Z,16.63
2023-01-30T19:41:32.718Z,20.23
2023-01-30T19:44:01.579Z,21.77
2023-01-30T19:46:29.254Z,19.70
2023-01-30T19:48:56.141Z,13.30
2023-01-30T19:51:28.281Z,20.17
2023-01-30T19:53:58.052Z,22.87
2023-01-30T19:56:26.202Z,23.17
2023-01-30T19:58:54.972Z,19.53
2023-01-30T20:01:23.963Z,24.30
2023-01-30T20:03:51.045Z,21.00
2023-01-30T20:06:20.316Z,21.13
2023-01-30T20:08:49.948Z,18.30
2023-01-30T20:11:18.314Z,17.03
2023-01-30T20:13:45.961Z,20.53
2023-01-30T20:16:19.554Z,24.87
2023-01-30T20:18:57.635Z,20.83
2023-01-30T20:21:24.529Z,15.37
2023-01-30T20:23:51.999Z,15.80
2023-01-30T20:26:21.996Z,21.67
2023-01-30T20:28:49.302Z,20.73
2023-01-30T20:31:21.711Z,16.00
2023-01-30T20:33:49.179Z,15.13
2023-01-30T20:36:19.031Z,19.10
2023-01-30T20:38:47.674Z,15.00
2023-01-30T20:41:23.358Z,19.43
2023-01-30T20:43:52.282Z,13.17
2023-01-30T20:46:22.221Z,24.00
2023-01-30T20:48:49.721Z,25.20
2023-01-30T20:51:18.243Z,21.60
2023-01-30T20:53:51.447Z,24.23
2023-01-30T20:56:19.509Z,18.23
2023-01-30T20:58:46.501Z,19.00
2023-01-30T21:01:21.547Z,17.93
2023-01-30T21:03:50.397Z,23.63
2023-01-30T21:06:37.200Z,24.23
2023-01-30T21:09:07.472Z,20.63
2023-01-30T21:11:34.816Z,24.43
2023-01-30T21:14:02.052Z,19.83
2023-01-30T21:16:31.033Z,24.70
2023-01-30T21:19:04.111Z,15.50
2023-01-30T21:21:40.148Z,21.70
2023-01-30T21:24:11.665Z,19.97
2023-01-30T21:26:40.464Z,19.50
2023-01-30T21:29:08.313Z,27.27
2023-01-30T21:31:36.201Z,19.77
2023-01-30T21:34:03.427Z,20.33
2023-01-30T21:36:30.600Z,15.93
2023-01-30T21:39:16.356Z,15.87
2023-01-30T21:42:03.622Z,22.37
2023-01-30T21:44:33.510Z,29.33
2023-01-30T21:47:00.226Z,21.73
2023-01-30T21:49:27.823Z,13.77
2023-01-30T21:51:54.945Z,47.97
2023-01-30T21:54:22.466Z,26.10
2023-01-30T21:56:49.429Z,20.97
2023-01-30T21:59:17.005Z,18.23
2023-01-30T22:01:43.966Z,38.73
2023-01-30T22:04:16.115Z,26.63
2023-01-30T22:06:43.791Z,15.30
2023-01-30T22:09:15.785Z,30.40
2023-01-30T22:11:42.963Z,30.20
2023-01-30T22:14:13.134Z,42.53
2023-01-30T22:16:40.687Z,25.27
2023-01-30T22:19:07.650Z,20.03
2023-01-30T22:21:37.442Z,33.70
2023-01-30T22:24:07.347Z,22.23
2023-01-30T22:26:34.638Z,24.13
2023-01-30T22:29:03.649Z,19.83
2023-01-30T22:31:34.462Z,20.10
2023-01-30T22:34:02.384Z,20.17
2023-01-30T22:36:31.499Z,22.07
2023-01-30T22:38:58.232Z,21.67
2023-01-30T22:41:26.961Z,13.50
2023-01-30T22:43:55.713Z,20.43
2023-01-30T22:46:25.347Z,23.20
2023-01-30T22:48:52.446Z,30.13
2023-01-30T22:51:20.579Z,14.27
2023-01-30T22:53:49.899Z,20.03
2023-01-30T22:56:19.166Z,17.10
2023-01-30T22:58:46.794Z,22.73
2023-01-30T23:01:25.406Z,26.33
2023-01-30T23:03:57.902Z,20.97
2023-01-30T23:06:25.816Z,18.57
2023-01-30T23:08:54.287Z,18.57
2023-01-30T23:11:22.584Z,19.27
2023-01-30T23:13:51.756Z,14.23
2023-01-30T23:16:21.678Z,20.60
2023-01-30T23:18:55.057Z,19.50
2023-01-30T23:21:45.536Z,18.53
2023-01-30T23:24:21.617Z,28.67
2023-01-30T23:26:50.467Z,21.80
2023-01-30T23:29:19.030Z,23.83
2023-01-30T23:31:46.865Z,17.83
2023-01-30T23:34:16.298Z,19.37
2023-01-30T23:36:43.453Z,26.33
2023-01-30T23:39:11.907Z,31.00
2023-01-30T23:41:39.049Z,22.77
2023-01-30T23:44:06.094Z,26.60
2023-01-30T23:46:35.436Z,18.90
2023-01-30T23:49:07.703Z,19.00
2023-01-30T23:51:36.424Z,25.43
2023-01-30T23:54:03.672Z,21.10
2023-01-30T23:56:32.371Z,24.27
2023-01-30T23:58:59.429Z,23.80
